createdAt,value
2022-11-24T00:01:31.296Z,2.51
2022-11-24T00:04:03.226Z,2.55
2022-11-24T00:06:31.139Z,2.48
2022-11-24T00:08:58.453Z,2.79
2022-11-24T00:11:28.710Z,2.89
2022-11-24T00:13:56.173Z,2.70
2022-11-24T00:16:25.830Z,2.95
2022-11-24T00:18:54.751Z,3.05
2022-11-24T00:21:21.890Z,3.03
2022-11-24T00:23:49.655Z,2.79
2022-11-24T00:26:30.775Z,2.69
2022-11-24T00:29:00.688Z,2.82
2022-11-24T00:31:28.892Z,2.93
2022-11-24T00:33:57.862Z,2.91
2022-11-24T00:36:27.173Z,2.89
2022-11-24T00:38:55.880Z,2.66
2022-11-24T00:41:23.895Z,2.80
2022-11-24T00:43:51.131Z,2.76
2022-11-24T00:46:18.253Z,2.72
2022-11-24T00:48:45.646Z,2.84
2022-11-24T00:51:14.330Z,2.61
2022-11-24T00:53:41.739Z,2.92
2022-11-24T00:56:09.891Z,2.80
2022-11-24T00:58:37.546Z,3.05
2022-11-24T01:01:12.798Z,3.08
2022-11-24T01:03:39.814Z,3.25
2022-11-24T01:06:21.499Z,3.20
2022-11-24T01:08:48.636Z,3.16
2022-11-24T01:11:17.414Z,3.13
2022-11-24T01:13:46.322Z,3.13
2022-11-24T01:16:42.385Z,3.05
2022-11-24T01:19:09.128Z,2.89
2022-11-24T01:21:35.734Z,2.96
2022-11-24T01:24:02.446Z,3.01
2022-11-24T01:26:29.048Z,2.74
2022-11-24T01:28:57.903Z,2.97
2022-11-24T01:31:26.008Z,2.89
2022-11-24T01:33:52.991Z,2.76
2022-11-24T01:36:20.012Z,2.89
2022-11-24T01:38:46.738Z,2.92
2022-11-24T01:41:19.670Z,3.01
2022-11-24T01:43:46.578Z,2.94
2022-11-24T01:46:19.410Z,2.99
2022-11-24T01:49:02.807Z,2.97
2022-11-24T01:51:33.587Z,2.84
2022-11-24T01:54:11.345Z,2.94
2022-11-24T01:56:42.113Z,2.68
2022-11-24T01:59:12.202Z,2.83
2022-11-24T02:01:38.958Z,2.70
2022-11-24T02:04:10.774Z,2.74
2022-11-24T02:06:40.147Z,2.81
2022-11-24T02:09:25.332Z,2.85
2022-11-24T02:11:54.158Z,2.87
2022-11-24T02:14:22.310Z,2.79
2022-11-24T02:16:50.429Z,2.77
2022-11-24T02:19:41.740Z,2.86
2022-11-24T02:22:25.684Z,2.63
2022-11-24T02:24:59.748Z,2.77
2022-11-24T02:27:26.381Z,2.60
2022-11-24T02:29:52.975Z,2.75
2022-11-24T02:32:20.535Z,2.78
2022-11-24T02:34:47.102Z,2.78
2022-11-24T02:37:13.734Z,2.65
2022-11-24T02:39:40.302Z,2.82
2022-11-24T02:42:12.952Z,2.67
2022-11-24T02:44:46.067Z,2.65
2022-11-24T02:47:13.380Z,2.94
2022-11-24T02:49:40.366Z,2.87
2022-11-24T02:52:07.786Z,3.10
2022-11-24T02:54:34.943Z,2.89
2022-11-24T02:57:01.921Z,2.80
2022-11-24T02:59:28.590Z,2.97
2022-11-24T03:01:55.287Z,3.04
2022-11-24T03:04:21.905Z,2.85
2022-11-24T03:06:48.941Z,3.08
2022-11-24T03:09:15.591Z,3.02
2022-11-24T03:11:42.249Z,3.25
2022-11-24T03:14:09.099Z,3.34
2022-11-24T03:16:35.951Z,3.04
2022-11-24T03:19:03.560Z,3.44
2022-11-24T03:21:30.347Z,3.42
2022-11-24T03:23:56.992Z,3.48
2022-11-24T03:26:24.946Z,3.70
2022-11-24T03:28:56.182Z,3.87
2022-11-24T03:31:24.138Z,3.95
2022-11-24T03:33:51.182Z,3.98
2022-11-24T03:36:18.079Z,3.89
2022-11-24T03:38:44.948Z,3.82
2022-11-24T03:41:11.708Z,3.42
2022-11-24T03:43:43.503Z,3.48
2022-11-24T03:46:11.842Z,3.58
2022-11-24T03:48:38.904Z,3.46
2022-11-24T03:51:05.796Z,3.49
2022-11-24T03:53:33.652Z,3.43
2022-11-24T03:56:01.972Z,3.47
2022-11-24T03:58:29.002Z,3.39
2022-11-24T04:00:56.300Z,3.46
2022-11-24T04:03:23.752Z,3.16
2022-11-24T04:05:50.391Z,3.21
2022-11-24T04:08:17.921Z,3.25
2022-11-24T04:10:44.505Z,3.48
2022-11-24T04:13:16.525Z,3.28
2022-11-24T04:15:43.955Z,3.63
2022-11-24T04:18:12.119Z,3.74
2022-11-24T04:20:39.559Z,3.67
2022-11-24T04:23:06.456Z,3.75
2022-11-24T04:25:33.613Z,3.76
2022-11-24T04:28:00.256Z,3.59
2022-11-24T04:30:29.200Z,3.67
2022-11-24T04:32:57.106Z,3.90
2022-11-24T04:35:24.421Z,3.67
2022-11-24T04:37:51.036Z,3.69
2022-11-24T04:40:18.167Z,3.51
2022-11-24T04:42:52.871Z,3.97
2022-11-24T04:45:19.441Z,4.08
2022-11-24T04:47:46.036Z,4.08
2022-11-24T04:50:12.595Z,3.96
2022-11-24T04:52:39.288Z,3.90
2022-11-24T04:55:06.340Z,3.86
2022-11-24T04:57:32.946Z,4.02
2022-11-24T04:59:59.600Z,4.05
2022-11-24T05:02:26.384Z,4.36
2022-11-24T05:04:52.982Z,4.23
2022-11-24T05:07:19.771Z,4.45
2022-11-24T05:10:05.384Z,4.49
2022-11-24T05:12:32.180Z,4.60
2022-11-24T05:14:59.507Z,4.61
2022-11-24T05:17:35.467Z,4.63
2022-11-24T05:20:02.532Z,4.47
2022-11-24T05:22:29.981Z,4.42
2022-11-24T05:24:56.542Z,4.55
2022-11-24T05:27:23.885Z,4.70
2022-11-24T05:29:50.420Z,4.63
2022-11-24T05:32:16.992Z,4.67
2022-11-24T05:34:43.671Z,4.75
2022-11-24T05:37:10.341Z,4.75
2022-11-24T05:39:37.114Z,4.61
2022-11-24T05:42:25.966Z,4.63
2022-11-24T05:44:53.005Z,4.58
2022-11-24T05:47:20.400Z,4.75
2022-11-24T05:49:47.736Z,4.78
2022-11-24T05:52:14.420Z,4.63
2022-11-24T05:54:41.050Z,4.70
2022-11-24T05:57:07.712Z,4.68
2022-11-24T05:59:34.468Z,4.75
2022-11-24T06:02:01.163Z,4.77
2022-11-24T06:04:28.197Z,4.90
2022-11-24T06:06:54.821Z,4.77
2022-11-24T06:09:21.490Z,4.78
2022-11-24T06:11:49.003Z,4.98
2022-11-24T06:14:15.592Z,4.89
2022-11-24T06:16:42.264Z,5.04
2022-11-24T06:19:10.865Z,4.87
2022-11-24T06:21:37.784Z,4.99
2022-11-24T06:24:05.051Z,4.89
2022-11-24T06:26:31.723Z,5.05
2022-11-24T06:28:58.353Z,4.87
2022-11-24T06:31:24.940Z,4.93
2022-11-24T06:33:51.619Z,5.05
2022-11-24T06:36:18.173Z,5.04
2022-11-24T06:38:45.059Z,5.13
2022-11-24T06:41:14.086Z,5.20
2022-11-24T06:43:41.035Z,5.20
2022-11-24T06:46:07.965Z,5.13
2022-11-24T06:48:34.714Z,4.98
2022-11-24T06:51:02.972Z,5.17
2022-11-24T06:53:37.673Z,5.17
2022-11-24T06:56:15.638Z,5.17
2022-11-24T06:58:45.333Z,5.24
2022-11-24T07:01:22.770Z,5.27
2022-11-24T07:03:50.344Z,5.30
2022-11-24T07:06:18.527Z,5.28
2022-11-24T07:08:45.881Z,5.25
2022-11-24T07:11:15.672Z,5.12
2022-11-24T07:13:43.574Z,5.26
2022-11-24T07:16:22.619Z,5.14
2022-11-24T07:18:54.175Z,5.16
2022-11-24T07:21:22.717Z,5.19
2022-11-24T07:23:50.907Z,5.24
2022-11-24T07:26:18.122Z,5.30
2022-11-24T07:28:45.064Z,4.56
2022-11-24T07:31:14.578Z,5.30
2022-11-24T07:33:42.262Z,5.14
2022-11-24T07:36:09.396Z,4.97
2022-11-24T07:38:36.349Z,5.30
2022-11-24T07:41:09.553Z,5.24
2022-11-24T07:43:37.526Z,5.39
2022-11-24T07:46:06.489Z,5.38
2022-11-24T07:48:34.138Z,5.18
2022-11-24T07:51:02.482Z,5.40
2022-11-24T07:53:29.320Z,5.16
2022-11-24T07:55:59.819Z,5.27
2022-11-24T07:58:32.405Z,5.31
2022-11-24T08:01:00.254Z,5.29
2022-11-24T08:03:26.996Z,5.25
2022-11-24T08:08:49.558Z,5.13
2022-11-24T08:11:18.012Z,5.58
2022-11-24T08:13:44.774Z,5.42
2022-11-24T08:16:14.977Z,5.44
2022-11-24T08:18:42.445Z,5.38
2022-11-24T08:21:13.180Z,5.60
2022-11-24T08:23:40.280Z,5.62
2022-11-24T08:26:10.682Z,5.68
2022-11-24T08:28:38.249Z,5.49
2022-11-24T08:31:13.795Z,5.47
2022-11-24T08:33:40.900Z,5.53
2022-11-24T08:36:13.728Z,5.55
2022-11-24T08:38:41.298Z,5.33
2022-11-24T08:41:11.120Z,5.43
2022-11-24T08:43:38.217Z,5.55
2022-11-24T08:46:09.750Z,5.49
2022-11-24T08:48:36.847Z,5.51
2022-11-24T08:51:09.112Z,5.30
2022-11-24T08:53:35.857Z,5.41
2022-11-24T08:56:05.048Z,5.20
2022-11-24T08:58:32.168Z,5.14
2022-11-24T09:01:13.864Z,5.51
2022-11-24T09:03:46.608Z,5.30
2022-11-24T09:06:19.066Z,5.31
2022-11-24T09:08:45.701Z,5.14
2022-11-24T09:11:15.108Z,5.45
2022-11-24T09:13:42.136Z,5.39
2022-11-24T09:16:18.774Z,5.64
2022-11-24T09:18:46.408Z,5.48
2022-11-24T09:21:14.424Z,5.40
2022-11-24T09:23:41.838Z,5.60
2022-11-24T09:26:09.822Z,5.65
2022-11-24T09:28:36.749Z,5.72
2022-11-24T09:31:09.303Z,5.63
2022-11-24T09:33:37.330Z,5.77
2022-11-24T09:36:04.938Z,5.76
2022-11-24T09:38:31.809Z,5.69
2022-11-24T09:41:32.712Z,5.74
2022-11-24T09:44:18.434Z,5.95
2022-11-24T09:46:54.166Z,5.93
2022-11-24T09:49:36.778Z,5.82
2022-11-24T09:52:11.041Z,5.77
2022-11-24T09:54:44.944Z,5.85
2022-11-24T09:57:13.093Z,5.89
2022-11-24T09:59:41.192Z,5.87
2022-11-24T10:02:13.237Z,5.84
2022-11-24T10:04:43.210Z,5.59
2022-11-24T10:07:26.145Z,5.83
2022-11-24T10:10:24.292Z,5.76
2022-11-24T10:13:30.133Z,5.77
2022-11-24T10:16:33.975Z,5.82
2022-11-24T10:19:13.088Z,5.59
2022-11-24T10:22:24.007Z,5.84
2022-11-24T10:25:18.929Z,5.77
2022-11-24T10:27:52.496Z,5.90
2022-11-24T10:30:24.043Z,5.60
2022-11-24T10:33:30.565Z,5.51
2022-11-24T10:36:16.874Z,5.78
2022-11-24T10:39:05.489Z,5.68
2022-11-24T10:41:52.570Z,5.76
2022-11-24T10:44:19.291Z,5.57
2022-11-24T10:46:46.027Z,5.56
2022-11-24T10:49:33.721Z,5.80
2022-11-24T10:52:01.405Z,5.96
2022-11-24T10:54:28.461Z,5.86
2022-11-24T10:56:55.504Z,5.73
2022-11-24T10:59:29.027Z,5.78
2022-11-24T11:01:56.212Z,5.71
2022-11-24T11:04:43.252Z,5.81
2022-11-24T11:07:22.019Z,5.76
2022-11-24T11:09:49.293Z,5.51
2022-11-24T11:12:44.696Z,5.76
2022-11-24T11:15:28.693Z,5.54
2022-11-24T11:18:00.206Z,5.77
2022-11-24T11:20:32.737Z,5.71
2022-11-24T11:23:04.651Z,5.72
2022-11-24T11:25:33.986Z,5.84
2022-11-24T11:28:23.133Z,5.60
2022-11-24T11:31:22.091Z,5.56
2022-11-24T11:34:21.857Z,5.77
2022-11-24T11:36:54.135Z,5.61
2022-11-24T11:39:25.078Z,5.85
2022-11-24T11:42:00.305Z,5.90
2022-11-24T11:44:39.907Z,5.92
2022-11-24T11:47:29.942Z,5.95
2022-11-24T11:49:57.549Z,5.74
2022-11-24T11:52:50.457Z,5.91
2022-11-24T11:55:46.591Z,5.86
2022-11-24T11:58:37.639Z,5.85
2022-11-24T12:01:26.362Z,5.90
2022-11-24T12:04:01.625Z,5.44
2022-11-24T12:06:36.327Z,5.62
2022-11-24T12:09:32.640Z,5.79
2022-11-24T12:12:17.534Z,5.79
2022-11-24T12:15:10.732Z,5.73
2022-11-24T12:17:45.279Z,5.62
2022-11-24T12:20:27.521Z,5.76
2022-11-24T12:23:33.031Z,5.60
2022-11-24T12:26:36.789Z,5.91
2022-11-24T12:29:24.020Z,5.94
2022-11-24T12:32:22.287Z,5.87
2022-11-24T12:35:27.957Z,5.90
2022-11-24T12:38:27.031Z,5.81
2022-11-24T12:41:39.613Z,5.86
2022-11-24T12:44:00.951Z,5.86
2022-11-24T12:47:21.846Z,5.84
2022-11-24T12:49:54.982Z,5.80
2022-11-24T12:52:30.850Z,5.72
2022-11-24T12:54:58.814Z,5.64
2022-11-24T12:57:47.730Z,5.52
2022-11-24T13:00:32.069Z,5.59
2022-11-24T13:03:05.000Z,5.72
2022-11-24T13:05:43.957Z,5.65
2022-11-24T13:08:11.103Z,5.25
2022-11-24T13:10:55.836Z,5.50
2022-11-24T13:13:28.374Z,5.45
2022-11-24T13:16:34.648Z,5.77
2022-11-24T13:19:04.366Z,5.77
2022-11-24T13:21:48.158Z,5.41
2022-11-24T13:24:18.853Z,5.71
2022-11-24T13:26:49.374Z,5.59
2022-11-24T13:29:28.536Z,5.63
2022-11-24T13:32:15.516Z,5.47
2022-11-24T13:34:45.825Z,5.61
2022-11-24T13:37:28.852Z,5.62
2022-11-24T13:40:13.610Z,5.65
2022-11-24T13:43:12.769Z,5.80
2022-11-24T13:45:39.566Z,5.76
2022-11-24T13:48:22.604Z,6.06
2022-11-24T13:50:49.549Z,6.09
2022-11-24T13:53:28.285Z,5.83
2022-11-24T13:55:59.272Z,6.07
2022-11-24T13:58:39.544Z,6.15
2022-11-24T14:01:15.321Z,6.10
2022-11-24T14:04:07.117Z,6.08
2022-11-24T14:06:40.207Z,5.83
2022-11-24T14:09:20.259Z,6.06
2022-11-24T14:12:01.709Z,5.68
2022-11-24T14:14:28.455Z,5.64
2022-11-24T14:17:07.409Z,5.95
2022-11-24T14:19:34.240Z,5.58
2022-11-24T14:22:00.908Z,6.02
2022-11-24T14:24:33.559Z,5.91
2022-11-24T14:27:03.451Z,6.01
2022-11-24T14:29:33.138Z,5.82
2022-11-24T14:32:03.461Z,5.89
2022-11-24T14:34:31.643Z,6.03
2022-11-24T14:37:00.501Z,5.87
2022-11-24T14:39:27.954Z,6.03
2022-11-24T14:42:10.042Z,5.96
2022-11-24T14:45:02.994Z,5.96
2022-11-24T14:47:32.646Z,5.64
2022-11-24T14:50:22.077Z,5.86
2022-11-24T14:52:56.847Z,5.74
2022-11-24T14:55:35.290Z,5.66
2022-11-24T14:58:01.922Z,5.48
2022-11-24T15:00:33.031Z,5.51
2022-11-24T15:03:02.634Z,5.56
2022-11-24T15:05:52.909Z,5.57
2022-11-24T15:08:20.132Z,4.53
2022-11-24T15:10:47.026Z,5.40
2022-11-24T15:13:19.404Z,5.41
2022-11-24T15:16:02.450Z,5.55
2022-11-24T15:18:55.026Z,5.75
2022-11-24T15:21:36.042Z,5.67
2022-11-24T15:24:17.119Z,5.59
2022-11-24T15:26:44.860Z,5.83
2022-11-24T15:29:12.432Z,5.81
2022-11-24T15:31:40.406Z,5.71
2022-11-24T15:34:09.416Z,5.64
2022-11-24T15:36:36.047Z,5.31
2022-11-24T15:39:02.883Z,5.50
2022-11-24T15:41:31.674Z,5.58
2022-11-24T15:43:59.408Z,5.55
2022-11-24T15:46:30.979Z,5.07
2022-11-24T15:48:58.025Z,5.24
2022-11-24T15:51:26.764Z,5.23
2022-11-24T15:54:00.998Z,5.21
2022-11-24T15:56:36.942Z,5.28
2022-11-24T15:59:04.234Z,5.05
2022-11-24T16:01:33.049Z,5.08
2022-11-24T16:04:00.642Z,5.23
2022-11-24T16:06:27.262Z,5.14
2022-11-24T16:08:54.703Z,5.12
2022-11-24T16:11:22.233Z,5.20
2022-11-24T16:13:53.056Z,4.83
2022-11-24T16:16:22.025Z,4.94
2022-11-24T16:18:48.935Z,4.93
2022-11-24T16:21:15.633Z,4.76
2022-11-24T16:23:42.462Z,4.45
2022-11-24T16:26:10.064Z,4.84
2022-11-24T16:28:36.750Z,4.95
2022-11-24T16:31:03.448Z,4.91
2022-11-24T16:33:30.472Z,5.07
2022-11-24T16:35:57.100Z,5.20
2022-11-24T16:38:23.752Z,4.90
2022-11-24T16:40:52.475Z,4.61
2022-11-24T16:43:19.282Z,5.07
2022-11-24T16:45:46.400Z,5.02
2022-11-24T16:48:13.070Z,4.92
2022-11-24T16:50:39.763Z,4.65
2022-11-24T16:53:06.372Z,4.59
2022-11-24T16:55:33.005Z,4.45
2022-11-24T16:57:59.631Z,4.52
2022-11-24T17:00:26.250Z,4.62
2022-11-24T17:02:52.948Z,4.85
2022-11-24T17:05:19.663Z,4.83
2022-11-24T17:07:46.364Z,4.28
2022-11-24T17:10:12.999Z,4.76
2022-11-24T17:12:40.865Z,4.63
2022-11-24T17:15:31.749Z,4.42
2022-11-24T17:18:22.963Z,4.55
2022-11-24T17:20:40.953Z,4.61
2022-11-24T17:23:07.542Z,4.41
2022-11-24T17:25:34.133Z,4.13
2022-11-24T17:28:00.780Z,3.99
2022-11-24T17:30:27.456Z,3.94
2022-11-24T17:32:56.982Z,3.84
2022-11-24T17:35:23.804Z,3.74
2022-11-24T17:37:50.501Z,3.73
2022-11-24T17:40:34.346Z,3.70
2022-11-24T17:43:01.469Z,3.68
2022-11-24T17:45:29.477Z,3.69
2022-11-24T17:47:59.034Z,3.40
2022-11-24T17:50:26.578Z,3.48
2022-11-24T17:52:54.202Z,3.47
2022-11-24T17:55:21.341Z,3.45
2022-11-24T17:57:48.104Z,3.45
2022-11-24T18:00:15.243Z,3.46
2022-11-24T18:02:42.098Z,3.37
2022-11-24T18:05:09.175Z,3.49
2022-11-24T18:07:36.754Z,3.71
2022-11-24T18:10:04.011Z,3.58
2022-11-24T18:12:30.627Z,3.23
2022-11-24T18:14:57.236Z,3.69
2022-11-24T18:17:23.877Z,3.45
2022-11-24T18:19:50.527Z,2.83
2022-11-24T18:22:17.656Z,3.01
2022-11-24T18:24:45.762Z,3.22
2022-11-24T18:27:13.653Z,3.23
2022-11-24T18:29:40.266Z,3.20
2022-11-24T18:32:07.016Z,3.47
2022-11-24T18:34:34.174Z,3.49
2022-11-24T18:37:00.974Z,3.85
2022-11-24T18:39:29.586Z,3.84
2022-11-24T18:41:56.179Z,3.67
2022-11-24T18:44:22.787Z,3.78
2022-11-24T18:46:49.605Z,3.54
2022-11-24T18:49:16.239Z,3.23
2022-11-24T18:51:43.624Z,3.44
2022-11-24T18:54:10.401Z,3.41
2022-11-24T18:56:37.436Z,3.18
2022-11-24T18:59:04.095Z,3.29
2022-11-24T19:01:31.189Z,3.23
2022-11-24T19:04:00.590Z,2.93
2022-11-24T19:06:35.840Z,3.52
2022-11-24T19:09:15.143Z,3.41
2022-11-24T19:11:44.244Z,3.29
2022-11-24T19:14:13.515Z,3.33
2022-11-24T19:16:40.933Z,3.21
2022-11-24T19:19:08.665Z,3.07
2022-11-24T19:21:37.520Z,3.10
2022-11-24T19:24:10.111Z,2.80
2022-11-24T19:26:38.516Z,3.33
2022-11-24T19:29:06.760Z,3.58
2022-11-24T19:31:34.640Z,3.46
2022-11-24T19:34:03.225Z,3.51
2022-11-24T19:36:30.516Z,3.05
2022-11-24T19:38:58.433Z,3.25
2022-11-24T19:41:28.470Z,3.22
2022-11-24T19:43:55.693Z,2.99
2022-11-24T19:46:27.099Z,3.20
2022-11-24T19:48:56.164Z,3.26
2022-11-24T19:51:30.674Z,3.12
2022-11-24T19:53:57.894Z,3.31
2022-11-24T19:56:29.512Z,3.22
2022-11-24T19:58:56.733Z,3.26
2022-11-24T20:01:43.755Z,2.94
2022-11-24T20:04:13.517Z,3.42
2022-11-24T20:06:43.660Z,3.15
2022-11-24T20:09:12.070Z,3.20
2022-11-24T20:11:39.723Z,3.29
2022-11-24T20:14:07.844Z,2.86
2022-11-24T20:16:35.178Z,2.86
2022-11-24T20:19:07.442Z,2.85
2022-11-24T20:21:36.967Z,2.76
2022-11-24T20:24:06.726Z,2.84
2022-11-24T20:26:36.793Z,2.64
2022-11-24T20:29:04.598Z,2.83
2022-11-24T20:31:34.454Z,2.81
2022-11-24T20:34:02.822Z,2.75
2022-11-24T20:36:31.696Z,2.81
2022-11-24T20:39:01.051Z,2.83
2022-11-24T20:41:31.824Z,2.89
2022-11-24T20:44:01.346Z,2.96
2022-11-24T20:46:31.237Z,3.00
2022-11-24T20:48:58.710Z,2.87
2022-11-24T20:51:30.635Z,2.83
2022-11-24T20:54:01.340Z,2.88
2022-11-24T20:56:30.666Z,2.74
2022-11-24T20:58:58.277Z,2.91
2022-11-24T21:01:30.754Z,2.87
2022-11-24T21:03:59.262Z,2.84
2022-11-24T21:06:27.983Z,2.90
2022-11-24T21:09:00.448Z,2.93
2022-11-24T21:11:30.467Z,2.74
2022-11-24T21:13:57.473Z,3.02
2022-11-24T21:16:25.726Z,2.82
2022-11-24T21:18:55.451Z,2.83
2022-11-24T21:21:23.849Z,2.64
2022-11-24T21:23:50.806Z,2.60
2022-11-24T21:26:19.307Z,2.70
2022-11-24T21:28:47.355Z,2.73
2022-11-24T21:31:17.135Z,2.73
2022-11-24T21:33:48.966Z,2.81
2022-11-24T21:36:17.835Z,2.81
2022-11-24T21:38:49.273Z,2.88
2022-11-24T21:41:15.926Z,2.89
2022-11-24T21:43:42.533Z,2.70
2022-11-24T21:46:11.182Z,2.67
2022-11-24T21:48:39.052Z,2.72
2022-11-24T21:51:08.389Z,2.94
2022-11-24T21:53:36.564Z,2.73
2022-11-24T21:56:06.390Z,2.92
2022-11-24T21:58:34.067Z,2.83
2022-11-24T22:01:02.927Z,2.94
2022-11-24T22:03:29.779Z,2.70
2022-11-24T22:06:02.804Z,2.85
2022-11-24T22:08:30.467Z,2.79
2022-11-24T22:11:05.989Z,2.83
2022-11-24T22:13:33.177Z,2.76
2022-11-24T22:16:08.346Z,2.70
2022-11-24T22:18:40.997Z,2.65
2022-11-24T22:21:10.790Z,2.60
2022-11-24T22:23:37.633Z,2.72
2022-11-24T22:26:06.761Z,2.78
2022-11-24T22:28:35.455Z,2.77
2022-11-24T22:31:20.444Z,2.70
2022-11-24T22:33:47.922Z,2.74
2022-11-24T22:36:16.432Z,2.75
2022-11-24T22:38:43.602Z,2.60
2022-11-24T22:41:16.189Z,2.56
2022-11-24T22:43:44.216Z,2.63
2022-11-24T22:46:15.561Z,2.82
2022-11-24T22:48:43.284Z,2.66
2022-11-24T22:51:15.958Z,2.63
2022-11-24T22:53:48.509Z,2.43
2022-11-24T22:56:16.081Z,2.52
2022-11-24T22:58:43.218Z,2.48
2022-11-24T23:01:15.554Z,2.43
2022-11-24T23:03:42.855Z,2.20
2022-11-24T23:06:18.067Z,2.23
2022-11-24T23:08:45.103Z,1.93
2022-11-24T23:11:15.062Z,2.33
2022-11-24T23:13:42.241Z,2.20
2022-11-24T23:16:17.434Z,2.34
2022-11-24T23:18:48.790Z,2.45
2022-11-24T23:21:19.153Z,2.47
2022-11-24T23:23:46.623Z,2.53
2022-11-24T23:26:17.849Z,2.19
2022-11-24T23:28:45.044Z,2.29
2022-11-24T23:31:17.445Z,2.20
2022-11-24T23:33:44.214Z,2.11
2022-11-24T23:36:16.592Z,2.08
2022-11-24T23:38:44.059Z,2.00
2022-11-24T23:41:17.484Z,2.01
2022-11-24T23:43:44.530Z,1.99
2022-11-24T23:46:13.634Z,1.91
2022-11-24T23:48:41.070Z,2.04
2022-11-24T23:51:13.711Z,1.93
2022-11-24T23:53:41.445Z,2.10
2022-11-24T23:56:09.207Z,1.78
2022-11-24T23:58:35.818Z,1.68
